Time;durP1;ratioP1;P1;durP2;ratioP2;P2;SDS_P1;SDS_P2;PMS_P1;PMS_P2;Temp;Humidity;BMP_temperature;BMP_pressure;BME280_temperature;BME280_humidity;BME280_pressure;Samples;Min_cycle;Max_cycle;Signal;HPM_P1;HPM_P2
2023/03/21 00:01:11;;;;;;;21.25;15.68;;;8.40;99.90;;;;;;5009507;28;20038;-72
2023/03/21 00:03:37;;;;;;;20.38;15.98;;;8.40;99.90;;;;;;5008328;28;20116;-72
2023/03/21 00:06:08;;;;;;;22.63;17.63;;;8.40;99.90;;;;;;5010025;28;20164;-73
2023/03/21 00:08:34;;;;;;;22.52;16.65;;;8.40;99.90;;;;;;5009645;28;20396;-72
2023/03/21 00:11:05;;;;;;;22.70;16.63;;;8.40;99.90;;;;;;5009637;28;20042;-73
2023/03/21 00:13:32;;;;;;;22.67;17.02;;;8.40;99.90;;;;;;5007576;28;20457;-73
2023/03/21 00:16:15;;;;;;;24.67;17.33;;;8.40;99.90;;;;;;5011592;28;20026;-73
2023/03/21 00:18:47;;;;;;;25.35;17.13;;;8.40;99.90;;;;;;5008390;28;20040;-73
2023/03/21 00:21:19;;;;;;;23.27;16.65;;;8.40;99.90;;;;;;5008727;28;20057;-74
2023/03/21 00:23:46;;;;;;;23.88;17.40;;;8.50;99.90;;;;;;5012390;28;20030;-73
2023/03/21 00:26:13;;;;;;;25.10;17.50;;;8.40;99.90;;;;;;5013681;28;20050;-73
2023/03/21 00:28:40;;;;;;;24.05;17.35;;;8.40;99.90;;;;;;5011558;28;20026;-73
2023/03/21 00:31:07;;;;;;;26.20;18.58;;;8.40;99.90;;;;;;5007230;28;20551;-73
2023/03/21 00:33:34;;;;;;;28.50;18.70;;;8.40;99.90;;;;;;5036005;28;20075;-73
2023/03/21 00:36:01;;;;;;;27.25;19.98;;;8.40;99.90;;;;;;5011021;28;20145;-73
2023/03/21 00:38:27;;;;;;;28.08;18.75;;;8.40;99.90;;;;;;5010817;28;20402;-73
2023/03/21 00:40:53;;;;;;;30.92;19.83;;;8.40;99.90;;;;;;5009647;28;20162;-73
2023/03/21 00:43:22;;;;;;;29.33;20.17;;;8.40;99.90;;;;;;5009687;28;20104;-73
2023/03/21 00:45:50;;;;;;;27.67;19.08;;;8.40;99.90;;;;;;5008877;28;20788;-73
2023/03/21 00:48:16;;;;;;;29.23;20.52;;;8.40;99.90;;;;;;5009835;28;20034;-73
2023/03/21 00:50:44;;;;;;;30.63;19.90;;;8.40;99.90;;;;;;5032705;28;20584;-73
2023/03/21 00:53:11;;;;;;;30.77;20.42;;;8.40;99.90;;;;;;5008670;28;20127;-73
2023/03/21 00:55:40;;;;;;;30.45;20.85;;;8.40;99.90;;;;;;5008714;28;20033;-73
2023/03/21 00:58:05;;;;;;;28.13;19.75;;;8.40;99.90;;;;;;5008574;28;20057;-72
2023/03/21 01:00:32;;;;;;;33.33;22.35;;;8.40;99.90;;;;;;4992445;28;20064;-73
2023/03/21 01:03:06;;;;;;;31.25;21.25;;;8.40;99.90;;;;;;5009253;28;20036;-73
2023/03/21 01:08:20;;;;;;;31.35;22.20;;;8.40;99.90;;;;;;5008987;28;20903;-73
2023/03/21 01:10:48;;;;;;;34.90;23.63;;;8.40;99.90;;;;;;5007905;28;20034;-72
2023/03/21 01:13:16;;;;;;;33.97;23.20;;;8.40;99.90;;;;;;5010957;28;20061;-74
2023/03/21 01:15:47;;;;;;;34.65;23.25;;;8.40;99.90;;;;;;4991603;28;20056;-73
2023/03/21 01:18:15;;;;;;;33.50;23.20;;;8.40;99.90;;;;;;5006953;28;20038;-73
2023/03/21 01:20:43;;;;;;;32.60;22.40;;;8.40;99.90;;;;;;5033776;28;20151;-72
2023/03/21 01:23:10;;;;;;;35.50;23.33;;;8.40;99.90;;;;;;5009004;28;20084;-73
2023/03/21 01:25:36;;;;;;;39.85;24.73;;;8.40;99.90;;;;;;5034701;28;20040;-72
2023/03/21 01:28:02;;;;;;;35.03;23.02;;;8.40;99.90;;;;;;5008222;28;20034;-72
2023/03/21 01:30:28;;;;;;;34.58;22.23;;;8.40;99.90;;;;;;5008839;28;20045;-73
2023/03/21 01:32:54;;;;;;;34.08;23.25;;;8.50;99.90;;;;;;5007368;28;20401;-75
2023/03/21 01:35:20;;;;;;;38.00;24.55;;;8.40;99.90;;;;;;4991328;28;20034;-75
2023/03/21 01:37:47;;;;;;;37.60;23.45;;;8.50;99.90;;;;;;4990052;28;20030;-75
2023/03/21 01:40:26;;;;;;;34.15;23.85;;;8.50;99.90;;;;;;5007747;28;20048;-74
2023/03/21 01:42:52;;;;;;;34.85;23.02;;;8.50;99.90;;;;;;5010489;28;20040;-72
2023/03/21 01:45:56;;;;;;;37.83;24.27;;;8.50;99.90;;;;;;4993742;28;20033;-73
2023/03/21 01:48:23;;;;;;;36.72;24.17;;;8.50;99.90;;;;;;5008633;28;20022;-73
2023/03/21 01:50:51;;;;;;;38.90;25.80;;;8.50;99.90;;;;;;5009569;28;20034;-72
2023/03/21 01:53:20;;;;;;;35.45;24.27;;;8.50;99.90;;;;;;5006400;28;20545;-72
2023/03/21 01:55:46;;;;;;;36.83;24.88;;;8.50;99.90;;;;;;5004983;28;20502;-73
2023/03/21 01:58:17;;;;;;;38.08;25.35;;;8.50;99.90;;;;;;5006249;28;20034;-72
2023/03/21 02:00:47;;;;;;;37.13;25.07;;;8.40;99.90;;;;;;5008713;28;20030;-74
2023/03/21 02:03:15;;;;;;;37.28;24.15;;;8.40;99.90;;;;;;5003999;28;20269;-73
2023/03/21 02:06:13;;;;;;;37.00;24.73;;;8.40;99.90;;;;;;5008066;28;20026;-73
2023/03/21 02:08:39;;;;;;;39.13;24.77;;;8.50;99.90;;;;;;5019280;28;20091;-74
2023/03/21 02:11:08;;;;;;;40.25;24.77;;;8.50;99.90;;;;;;5007305;28;20092;-73
2023/03/21 02:13:35;;;;;;;36.17;24.40;;;8.50;99.90;;;;;;4989083;28;20068;-73
2023/03/21 02:16:11;;;;;;;36.90;25.23;;;8.50;99.90;;;;;;5010407;28;20044;-73
2023/03/21 02:18:39;;;;;;;36.70;24.40;;;8.50;99.90;;;;;;5004418;28;20401;-73
2023/03/21 02:21:43;;;;;;;35.20;23.23;;;8.50;99.90;;;;;;5007578;28;20439;-73
2023/03/21 02:24:50;;;;;;;40.05;26.02;;;8.50;99.90;;;;;;5006797;28;20034;-72
2023/03/21 02:27:22;;;;;;;36.25;24.10;;;8.50;99.90;;;;;;5008945;28;20036;-73
2023/03/21 02:29:54;;;;;;;37.15;23.35;;;8.50;99.90;;;;;;5007284;28;20041;-73
2023/03/21 02:32:29;;;;;;;41.20;25.83;;;8.50;99.90;;;;;;5007246;28;20072;-73
2023/03/21 02:35:20;;;;;;;38.92;25.88;;;8.50;99.90;;;;;;5002804;28;20034;-72
2023/03/21 02:37:54;;;;;;;39.50;24.98;;;8.50;99.90;;;;;;5008565;28;20041;-73
2023/03/21 02:40:31;;;;;;;37.78;24.50;;;8.50;99.90;;;;;;5031186;28;20108;-73
2023/03/21 02:43:21;;;;;;;35.97;23.80;;;8.40;99.90;;;;;;5005873;28;20025;-73
2023/03/21 02:45:53;;;;;;;40.03;25.80;;;8.50;99.90;;;;;;5007596;28;20373;-73
2023/03/21 02:48:31;;;;;;;39.55;26.50;;;8.50;99.90;;;;;;5007374;28;20101;-73
2023/03/21 02:51:00;;;;;;;39.22;25.27;;;8.50;99.90;;;;;;5006528;28;20515;-73
2023/03/21 02:53:32;;;;;;;39.80;26.05;;;8.50;99.90;;;;;;5002979;28;20104;-73
2023/03/21 02:56:00;;;;;;;37.75;24.48;;;8.50;99.90;;;;;;5005532;28;20108;-73
2023/03/21 02:58:28;;;;;;;38.53;25.85;;;8.50;99.90;;;;;;5002190;28;20418;-73
2023/03/21 03:00:55;;;;;;;40.88;26.58;;;8.60;99.90;;;;;;5021879;28;20038;-73
2023/03/21 03:03:22;;;;;;;38.95;26.00;;;8.60;99.90;;;;;;5005107;28;20116;-73
2023/03/21 03:05:52;;;;;;;44.88;27.17;;;8.60;99.90;;;;;;5004691;28;20029;-73
2023/03/21 03:08:36;;;;;;;39.53;26.25;;;8.60;99.90;;;;;;5004517;28;20098;-73
2023/03/21 03:11:08;;;;;;;45.35;28.20;;;8.60;99.90;;;;;;5004152;28;20038;-73
2023/03/21 03:14:08;;;;;;;42.15;25.95;;;8.60;99.90;;;;;;5005393;28;20537;-73
2023/03/21 03:16:49;;;;;;;40.85;27.02;;;8.60;99.90;;;;;;5004243;28;20103;-74
2023/03/21 03:19:26;;;;;;;41.13;26.38;;;8.60;99.90;;;;;;5008720;28;20157;-73
2023/03/21 03:21:57;;;;;;;40.22;26.50;;;8.60;99.90;;;;;;5005746;28;20119;-73
2023/03/21 03:24:28;;;;;;;39.85;26.73;;;8.60;99.90;;;;;;5006327;28;20025;-73
2023/03/21 03:27:03;;;;;;;44.28;28.65;;;8.60;99.90;;;;;;5005129;28;20034;-75
2023/03/21 03:29:31;;;;;;;39.67;26.48;;;8.60;99.90;;;;;;5015682;28;20533;-74
2023/03/21 03:32:05;;;;;;;39.85;25.90;;;8.60;99.90;;;;;;5004888;28;20109;-73
2023/03/21 03:34:38;;;;;;;39.65;25.83;;;8.60;99.90;;;;;;5006112;28;20107;-73
2023/03/21 03:37:07;;;;;;;41.90;26.70;;;8.60;99.90;;;;;;5004949;28;20064;-72
2023/03/21 03:39:38;;;;;;;45.17;28.27;;;8.60;99.90;;;;;;5005982;28;20030;-72
2023/03/21 03:42:12;;;;;;;39.85;26.27;;;8.60;99.90;;;;;;5007285;28;20030;-73
2023/03/21 03:44:38;;;;;;;45.35;28.83;;;8.70;99.90;;;;;;5004485;28;20034;-73
2023/03/21 03:47:10;;;;;;;44.95;29.73;;;8.60;99.90;;;;;;5006615;28;20045;-72
2023/03/21 03:49:49;;;;;;;44.75;29.08;;;8.60;99.90;;;;;;5005942;28;20022;-73
2023/03/21 03:52:25;;;;;;;47.08;30.38;;;8.60;99.90;;;;;;5009588;28;20065;-73
2023/03/21 03:54:51;;;;;;;47.05;30.33;;;8.70;99.90;;;;;;5006489;28;20029;-75
2023/03/21 03:57:18;;;;;;;50.83;31.08;;;8.60;99.90;;;;;;5007442;28;20034;-75
2023/03/21 03:59:45;;;;;;;44.42;29.00;;;8.60;99.90;;;;;;5005416;28;20022;-74
2023/03/21 04:02:11;;;;;;;44.50;28.92;;;8.70;99.90;;;;;;5004855;28;20117;-74
2023/03/21 04:04:38;;;;;;;50.17;30.20;;;8.70;99.90;;;;;;5006562;28;20080;-74
2023/03/21 04:07:05;;;;;;;47.40;28.83;;;8.70;99.90;;;;;;5006958;28;20085;-74
2023/03/21 04:09:31;;;;;;;46.85;30.50;;;8.70;99.90;;;;;;5004459;28;20037;-75
2023/03/21 04:11:57;;;;;;;46.15;29.40;;;8.70;99.90;;;;;;5006511;28;20998;-73
2023/03/21 04:14:24;;;;;;;45.92;30.38;;;8.70;99.90;;;;;;5006454;28;20037;-74
2023/03/21 04:16:50;;;;;;;42.72;27.80;;;8.70;99.90;;;;;;5004738;28;20520;-74
2023/03/21 04:19:17;;;;;;;43.78;28.10;;;8.70;99.90;;;;;;4981193;28;20107;-75
2023/03/21 04:21:45;;;;;;;38.92;25.88;;;8.70;99.90;;;;;;5003884;28;20029;-74
2023/03/21 04:24:12;;;;;;;41.42;26.95;;;8.70;99.90;;;;;;5005427;28;20033;-73
2023/03/21 04:26:38;;;;;;;40.75;26.30;;;8.70;99.90;;;;;;5005821;28;20030;-75
2023/03/21 04:29:05;;;;;;;43.83;26.75;;;8.70;99.90;;;;;;5004746;28;20061;-74
2023/03/21 04:31:33;;;;;;;41.40;26.63;;;8.70;99.90;;;;;;5005731;28;20060;-75
2023/03/21 04:34:01;;;;;;;39.40;26.02;;;8.80;99.90;;;;;;5004574;28;20061;-74
2023/03/21 04:36:29;;;;;;;39.80;25.63;;;8.80;99.90;;;;;;5004860;28;20049;-75
2023/03/21 04:39:00;;;;;;;41.97;26.15;;;8.80;99.90;;;;;;5010108;28;20041;-74
2023/03/21 04:41:27;;;;;;;41.22;26.98;;;8.70;99.90;;;;;;5009567;28;20022;-73
2023/03/21 04:43:53;;;;;;;40.33;26.15;;;8.80;99.90;;;;;;5008428;28;20096;-72
2023/03/21 04:46:19;;;;;;;39.25;26.48;;;8.80;99.90;;;;;;5009457;28;20041;-73
2023/03/21 04:48:46;;;;;;;38.78;26.08;;;8.80;99.90;;;;;;5009613;28;20683;-73
2023/03/21 04:51:12;;;;;;;44.42;27.25;;;8.80;99.90;;;;;;5006567;28;20136;-73
2023/03/21 04:53:38;;;;;;;41.47;27.38;;;8.80;99.90;;;;;;5011056;28;20034;-73
2023/03/21 04:56:05;;;;;;;43.50;26.98;;;8.80;99.90;;;;;;5011792;28;20405;-73
2023/03/21 04:58:31;;;;;;;43.85;28.75;;;8.80;99.90;;;;;;5006304;28;20065;-75
2023/03/21 05:00:57;;;;;;;42.70;27.60;;;8.80;99.90;;;;;;5009889;28;20033;-74
2023/03/21 05:03:24;;;;;;;40.55;26.25;;;8.80;99.90;;;;;;5011022;28;20486;-75
2023/03/21 05:05:49;;;;;;;44.20;27.48;;;8.80;99.90;;;;;;5011224;28;20026;-73
2023/03/21 05:08:15;;;;;;;40.63;27.23;;;8.80;99.90;;;;;;5006862;28;20026;-73
2023/03/21 05:10:42;;;;;;;43.55;28.75;;;8.80;99.90;;;;;;5011472;28;20108;-73
2023/03/21 05:13:08;;;;;;;40.95;27.15;;;8.80;99.90;;;;;;5008731;28;20042;-73
2023/03/21 05:15:36;;;;;;;43.88;28.00;;;8.80;99.90;;;;;;5007031;28;20041;-75
2023/03/21 05:18:10;;;;;;;41.67;28.55;;;8.80;99.90;;;;;;5007032;28;20030;-74
2023/03/21 05:20:41;;;;;;;43.60;28.15;;;8.80;99.90;;;;;;5007606;28;20035;-74
2023/03/21 05:23:09;;;;;;;50.40;31.30;;;8.80;99.90;;;;;;5005783;28;20097;-74
2023/03/21 05:25:36;;;;;;;49.53;31.10;;;8.80;99.90;;;;;;5010053;28;20034;-74
2023/03/21 05:28:05;;;;;;;45.75;29.38;;;8.70;99.90;;;;;;5006771;28;20060;-74
2023/03/21 05:30:32;;;;;;;40.60;28.10;;;8.70;99.90;;;;;;5006112;28;20174;-75
2023/03/21 05:32:59;;;;;;;41.92;28.05;;;8.70;99.90;;;;;;5008750;28;20045;-73
2023/03/21 05:35:25;;;;;;;41.78;26.67;;;8.70;99.90;;;;;;5009310;28;20128;-73
2023/03/21 05:37:52;;;;;;;40.17;27.40;;;8.70;99.90;;;;;;5005077;28;20686;-73
2023/03/21 05:40:18;;;;;;;39.85;26.25;;;8.70;99.90;;;;;;5008849;28;20026;-73
2023/03/21 05:42:46;;;;;;;41.20;26.58;;;8.70;99.90;;;;;;5010831;28;20022;-74
2023/03/21 05:45:13;;;;;;;40.50;26.48;;;8.70;99.90;;;;;;5005512;28;20404;-72
2023/03/21 05:47:38;;;;;;;40.28;26.60;;;8.70;99.90;;;;;;5005538;28;20029;-72
2023/03/21 05:50:05;;;;;;;38.90;25.92;;;8.70;99.90;;;;;;5006494;28;20033;-74
2023/03/21 05:52:31;;;;;;;41.08;27.40;;;8.70;99.90;;;;;;5004659;28;20026;-74
2023/03/21 05:54:57;;;;;;;40.83;27.98;;;8.70;99.90;;;;;;5005662;28;20498;-75
2023/03/21 05:57:26;;;;;;;41.95;27.55;;;8.70;99.90;;;;;;5032216;28;20042;-75
2023/03/21 05:59:54;;;;;;;43.08;27.92;;;8.70;99.90;;;;;;5007903;28;20407;-73
2023/03/21 06:02:19;;;;;;;42.75;28.13;;;8.70;99.90;;;;;;4989835;28;20025;-73
2023/03/21 06:04:45;;;;;;;42.28;26.25;;;8.70;99.90;;;;;;5007142;28;20025;-73
2023/03/21 06:07:11;;;;;;;43.78;28.08;;;8.70;99.90;;;;;;5004545;28;20041;-75
2023/03/21 06:09:37;;;;;;;40.90;26.92;;;8.70;99.90;;;;;;5004346;28;20046;-75
2023/03/21 06:12:02;;;;;;;42.83;28.23;;;8.70;99.90;;;;;;4989287;28;20041;-75
2023/03/21 06:14:28;;;;;;;42.92;29.42;;;8.70;99.90;;;;;;4988391;28;20041;-74
2023/03/21 06:16:54;;;;;;;40.55;27.90;;;8.70;99.90;;;;;;5021368;28;20507;-72
2023/03/21 06:19:20;;;;;;;40.58;27.90;;;8.80;99.90;;;;;;4983967;28;20175;-74
2023/03/21 06:21:47;;;;;;;38.38;26.48;;;8.80;99.90;;;;;;5002005;28;20145;-73
2023/03/21 06:24:13;;;;;;;38.10;26.40;;;8.80;99.90;;;;;;5009368;28;20486;-74
2023/03/21 06:26:41;;;;;;;37.83;26.80;;;8.80;99.90;;;;;;5001495;28;20096;-74
2023/03/21 06:29:07;;;;;;;38.70;27.15;;;10.00;99.90;;;;;;5004536;28;20057;-74
2023/03/21 06:31:33;;;;;;;36.60;25.42;;;9.60;99.90;;;;;;5008169;28;20409;-74
2023/03/21 06:33:59;;;;;;;41.40;28.38;;;9.40;99.90;;;;;;4999402;28;20117;-73
2023/03/21 06:36:25;;;;;;;41.35;28.40;;;9.30;99.90;;;;;;5004993;28;20030;-75
2023/03/21 06:38:51;;;;;;;43.88;28.88;;;9.20;99.90;;;;;;5001521;28;20030;-74
2023/03/21 06:41:17;;;;;;;46.28;30.17;;;9.10;99.90;;;;;;5029230;28;20033;-75
2023/03/21 06:43:44;;;;;;;39.70;28.15;;;9.00;99.90;;;;;;5003020;28;20366;-73
2023/03/21 06:46:10;;;;;;;47.33;29.65;;;9.00;99.90;;;;;;5010776;28;20041;-75
2023/03/21 06:48:36;;;;;;;39.47;28.55;;;9.00;99.90;;;;;;5006164;28;20473;-74
2023/03/21 06:51:03;;;;;;;41.88;28.25;;;9.10;99.90;;;;;;5006638;28;20026;-75
2023/03/21 06:53:30;;;;;;;43.20;29.60;;;9.10;99.90;;;;;;5006540;28;20056;-74
2023/03/21 06:55:56;;;;;;;42.15;28.20;;;9.10;99.90;;;;;;5005795;28;20064;-76
2023/03/21 06:58:23;;;;;;;46.10;30.52;;;9.10;99.90;;;;;;5007748;28;20076;-75
2023/03/21 07:00:49;;;;;;;43.25;29.23;;;9.10;99.90;;;;;;4990316;28;20301;-75
2023/03/21 07:03:15;;;;;;;42.60;29.02;;;9.10;99.90;;;;;;5004696;28;20512;-74
2023/03/21 07:05:42;;;;;;;41.15;28.33;;;9.10;99.90;;;;;;4989420;28;20073;-75
2023/03/21 07:08:11;;;;;;;44.88;29.17;;;9.10;99.90;;;;;;5005309;28;20041;-74
2023/03/21 07:10:41;;;;;;;42.47;28.85;;;9.10;99.90;;;;;;5006120;28;20497;-72
2023/03/21 07:13:07;;;;;;;39.38;27.13;;;9.10;99.90;;;;;;5005807;28;20033;-75
2023/03/21 07:15:36;;;;;;;39.97;28.48;;;9.10;99.90;;;;;;5008646;28;20030;-75
2023/03/21 07:18:03;;;;;;;40.72;26.92;;;9.10;99.90;;;;;;5006281;28;20112;-75
2023/03/21 07:20:30;;;;;;;38.17;27.73;;;9.10;99.90;;;;;;5006118;28;20117;-74
2023/03/21 07:22:56;;;;;;;43.85;28.10;;;9.10;99.90;;;;;;5005530;28;20056;-74
2023/03/21 07:25:22;;;;;;;40.00;26.13;;;9.20;99.90;;;;;;5005240;28;20157;-74
2023/03/21 07:27:48;;;;;;;38.58;27.17;;;9.20;99.90;;;;;;4999741;28;20534;-73
2023/03/21 07:30:14;;;;;;;36.33;25.33;;;9.30;99.90;;;;;;5003718;28;20057;-75
2023/03/21 07:32:40;;;;;;;38.95;26.38;;;9.30;99.90;;;;;;5005548;28;20040;-74
2023/03/21 07:35:08;;;;;;;41.40;27.10;;;9.30;99.90;;;;;;5004110;28;20030;-73
2023/03/21 07:37:34;;;;;;;42.28;28.33;;;9.30;99.90;;;;;;5002877;28;20037;-74
2023/03/21 07:40:00;;;;;;;42.72;27.38;;;9.30;99.90;;;;;;4987641;28;20393;-75
2023/03/21 07:42:25;;;;;;;44.53;28.90;;;9.30;99.90;;;;;;5006699;28;20030;-74
2023/03/21 07:44:53;;;;;;;45.38;29.88;;;9.30;99.90;;;;;;5006464;28;20026;-76
2023/03/21 07:47:20;;;;;;;46.83;29.80;;;9.30;99.90;;;;;;5004642;28;20402;-73
2023/03/21 07:49:46;;;;;;;44.28;28.65;;;9.30;99.90;;;;;;5001674;28;20049;-71
2023/03/21 07:52:11;;;;;;;49.95;30.27;;;9.30;99.90;;;;;;4985007;28;20035;-75
2023/03/21 07:54:37;;;;;;;44.97;28.92;;;9.30;99.90;;;;;;5005524;28;20025;-74
2023/03/21 07:57:03;;;;;;;45.95;29.73;;;9.30;99.90;;;;;;5005301;28;20050;-76
2023/03/21 07:59:32;;;;;;;53.17;32.05;;;9.40;99.90;;;;;;5002171;28;20061;-74
2023/03/21 08:01:58;;;;;;;47.58;30.90;;;9.40;99.90;;;;;;4997549;28;20058;-74
2023/03/21 08:04:24;;;;;;;58.47;35.65;;;9.40;99.90;;;;;;5004336;28;20053;-75
2023/03/21 08:06:50;;;;;;;57.50;34.55;;;9.40;99.90;;;;;;5003957;28;20038;-73
2023/03/21 08:09:16;;;;;;;59.78;35.42;;;9.40;99.90;;;;;;5005264;28;20096;-75
2023/03/21 08:11:41;;;;;;;59.03;35.13;;;9.40;99.90;;;;;;5004580;28;20040;-74
2023/03/21 08:14:07;;;;;;;63.92;37.53;;;9.40;99.90;;;;;;5009617;28;20110;-74
2023/03/21 08:16:33;;;;;;;59.92;36.15;;;9.40;99.90;;;;;;5008944;28;20489;-75
2023/03/21 08:18:59;;;;;;;61.38;34.00;;;9.40;99.90;;;;;;5010715;28;20538;-76
2023/03/21 08:21:25;;;;;;;59.53;33.80;;;9.40;99.90;;;;;;5011627;28;20026;-76
2023/03/21 08:23:52;;;;;;;51.10;32.38;;;9.40;99.90;;;;;;5010503;28;20018;-74
2023/03/21 08:26:18;;;;;;;54.42;31.35;;;9.40;99.90;;;;;;5008097;28;20025;-74
2023/03/21 08:28:45;;;;;;;52.72;31.60;;;9.40;99.90;;;;;;5009073;28;20029;-74
2023/03/21 08:31:11;;;;;;;50.42;30.85;;;9.50;99.90;;;;;;5011779;28;20034;-73
2023/03/21 08:33:38;;;;;;;53.50;31.33;;;9.50;99.90;;;;;;4991813;28;20136;-74
2023/03/21 08:36:05;;;;;;;46.97;30.98;;;9.50;99.90;;;;;;5011480;28;20113;-75
2023/03/21 08:38:32;;;;;;;50.70;31.55;;;9.50;99.90;;;;;;4992900;28;20141;-75
2023/03/21 08:41:01;;;;;;;51.60;30.92;;;9.50;99.90;;;;;;5008580;28;20030;-75
2023/03/21 08:43:27;;;;;;;51.65;31.20;;;9.50;99.90;;;;;;5007693;28;20041;-73
2023/03/21 08:45:54;;;;;;;55.90;33.28;;;9.60;99.90;;;;;;5012292;28;20060;-73
2023/03/21 08:48:20;;;;;;;48.75;29.50;;;9.60;99.90;;;;;;4991615;28;20033;-75
2023/03/21 08:50:46;;;;;;;47.17;30.23;;;9.60;99.90;;;;;;5009251;28;20512;-73
2023/03/21 08:53:12;;;;;;;50.65;28.55;;;9.50;99.90;;;;;;5009962;28;20038;-75
2023/03/21 08:55:37;;;;;;;50.00;29.20;;;9.50;99.90;;;;;;5009682;28;20034;-74
2023/03/21 08:58:04;;;;;;;46.97;28.73;;;9.60;99.90;;;;;;5012847;28;20029;-73
2023/03/21 09:00:31;;;;;;;50.28;32.78;;;9.60;99.90;;;;;;5010156;28;20100;-75
2023/03/21 09:02:57;;;;;;;56.00;32.58;;;9.60;99.90;;;;;;5009064;28;20497;-75
2023/03/21 09:05:25;;;;;;;57.90;32.15;;;9.60;99.90;;;;;;5010323;28;20060;-73
2023/03/21 09:07:51;;;;;;;53.47;33.22;;;9.60;99.90;;;;;;5009845;28;20084;-75
2023/03/21 09:10:20;;;;;;;51.78;31.40;;;9.70;99.90;;;;;;5010339;28;20026;-75
2023/03/21 09:12:47;;;;;;;58.33;32.72;;;9.70;99.90;;;;;;5011753;28;20048;-76
2023/03/21 09:15:13;;;;;;;52.40;32.08;;;9.70;99.90;;;;;;5009620;28;20029;-73
2023/03/21 09:17:42;;;;;;;57.28;34.83;;;9.80;99.90;;;;;;5007967;28;20033;-73
2023/03/21 09:20:17;;;;;;;62.17;33.40;;;9.80;99.90;;;;;;5009058;28;20021;-75
2023/03/21 09:22:48;;;;;;;53.58;32.92;;;9.80;99.90;;;;;;5008638;28;20022;-76
2023/03/21 09:25:15;;;;;;;61.60;35.28;;;9.80;99.90;;;;;;5009935;28;20041;-75
2023/03/21 09:27:44;;;;;;;64.40;35.65;;;9.80;99.90;;;;;;4992019;28;20548;-76
2023/03/21 09:30:12;;;;;;;63.80;34.90;;;9.80;99.90;;;;;;5010192;28;20663;-75
2023/03/21 09:32:39;;;;;;;64.93;35.47;;;9.80;99.90;;;;;;5008533;28;20033;-75
2023/03/21 09:35:10;;;;;;;61.13;35.30;;;9.80;99.90;;;;;;5009829;28;20045;-76
2023/03/21 09:37:40;;;;;;;63.45;36.25;;;9.80;99.90;;;;;;5009175;28;20022;-73
2023/03/21 09:40:14;;;;;;;58.78;33.90;;;9.80;99.90;;;;;;5008596;28;20054;-74
2023/03/21 09:43:04;;;;;;;61.80;33.75;;;10.00;99.90;;;;;;5007857;28;20030;-73
2023/03/21 09:45:41;;;;;;;58.83;34.22;;;10.00;99.90;;;;;;5006536;28;20022;-74
2023/03/21 09:48:21;;;;;;;50.25;31.05;;;10.10;99.90;;;;;;5018750;28;20025;-73
2023/03/21 09:50:47;;;;;;;54.65;30.88;;;10.10;99.90;;;;;;5009001;28;20021;-76
2023/03/21 09:53:29;;;;;;;56.55;30.63;;;10.10;99.90;;;;;;5005930;28;20034;-74
2023/03/21 09:55:55;;;;;;;68.25;32.65;;;10.10;99.90;;;;;;5007130;28;20037;-75
2023/03/21 09:58:41;;;;;;;52.58;30.20;;;10.10;99.90;;;;;;5008258;28;20065;-73
2023/03/21 10:01:27;;;;;;;52.20;29.73;;;10.10;99.90;;;;;;5009379;28;20537;-73
2023/03/21 10:03:55;;;;;;;45.35;27.48;;;10.10;99.90;;;;;;5009264;28;20033;-74
2023/03/21 10:06:27;;;;;;;45.20;28.45;;;10.10;99.90;;;;;;5005814;28;20069;-73
2023/03/21 10:09:13;;;;;;;44.03;28.60;;;10.10;99.90;;;;;;5007254;28;20030;-73
2023/03/21 10:11:43;;;;;;;44.97;27.38;;;10.10;99.90;;;;;;5008390;28;20509;-73
2023/03/21 10:14:33;;;;;;;44.87;27.07;;;10.20;99.90;;;;;;5008511;28;20457;-75
2023/03/21 10:17:27;;;;;;;45.93;27.27;;;10.20;99.90;;;;;;5010231;28;20092;-74
2023/03/21 10:20:12;;;;;;;43.30;26.67;;;10.20;99.90;;;;;;5009291;28;20034;-73
2023/03/21 10:22:37;;;;;;;44.20;27.02;;;10.20;99.90;;;;;;5008827;28;20033;-74
2023/03/21 10:25:05;;;;;;;39.20;25.48;;;10.20;99.90;;;;;;5006629;28;20036;-72
2023/03/21 10:27:32;;;;;;;38.58;24.42;;;10.30;99.90;;;;;;5006798;28;20043;-73
2023/03/21 10:29:59;;;;;;;41.55;26.35;;;10.20;99.90;;;;;;5009221;28;20116;-74
2023/03/21 10:32:25;;;;;;;39.10;25.20;;;10.20;99.90;;;;;;4989627;28;20034;-73
2023/03/21 10:34:57;;;;;;;36.25;23.20;;;10.10;99.90;;;;;;5005977;28;20030;-71
2023/03/21 10:37:24;;;;;;;36.05;23.35;;;10.20;99.90;;;;;;5008286;28;20033;-73
2023/03/21 10:39:52;;;;;;;32.72;22.40;;;10.20;99.90;;;;;;4989668;28;20026;-72
2023/03/21 10:42:24;;;;;;;35.40;22.55;;;10.30;99.90;;;;;;5008516;28;20030;-71
2023/03/21 10:44:56;;;;;;;42.50;24.67;;;10.30;99.90;;;;;;5005437;28;20091;-73
2023/03/21 10:47:34;;;;;;;36.35;22.52;;;10.20;99.90;;;;;;5007257;28;20494;-72
2023/03/21 10:50:03;;;;;;;36.10;22.63;;;10.20;99.90;;;;;;5007325;28;20170;-76
2023/03/21 10:52:31;;;;;;;37.80;23.95;;;10.20;99.90;;;;;;5032178;28;20038;-75
2023/03/21 10:55:23;;;;;;;37.38;24.20;;;10.20;99.90;;;;;;5013469;28;20117;-72
2023/03/21 10:58:07;;;;;;;37.05;22.58;;;10.20;99.90;;;;;;5008071;28;20148;-73
2023/03/21 11:00:40;;;;;;;32.88;21.48;;;10.30;99.90;;;;;;5010299;28;20029;-74
2023/03/21 11:03:20;;;;;;;39.42;25.02;;;10.20;99.90;;;;;;5005673;28;20075;-73
2023/03/21 11:05:47;;;;;;;37.42;24.83;;;10.20;99.90;;;;;;5011129;28;20466;-72
2023/03/21 11:08:16;;;;;;;40.50;24.88;;;10.20;99.90;;;;;;5008095;28;20030;-72
2023/03/21 11:10:58;;;;;;;34.78;22.15;;;10.20;99.90;;;;;;5008418;28;20061;-73
2023/03/21 11:13:33;;;;;;;38.50;24.17;;;10.30;99.90;;;;;;5008041;28;20105;-74
2023/03/21 11:16:07;;;;;;;42.90;24.85;;;10.30;99.90;;;;;;5008313;28;20088;-74
2023/03/21 11:18:40;;;;;;;45.35;27.17;;;10.20;99.90;;;;;;5007611;28;20030;-74
2023/03/21 11:21:09;;;;;;;41.55;26.15;;;10.20;99.90;;;;;;5006081;28;20025;-74
2023/03/21 11:23:40;;;;;;;44.63;25.52;;;10.30;99.90;;;;;;5003594;28;20041;-73
2023/03/21 11:26:11;;;;;;;45.92;27.27;;;10.30;99.90;;;;;;5008461;28;20398;-73
2023/03/21 11:28:38;;;;;;;;;;;10.40;99.90;;;;;;5007534;28;20026;-74
2023/03/21 11:31:06;;;;;;;39.88;25.40;;;10.40;99.90;;;;;;5008538;28;19963;-74
2023/03/21 11:33:46;;;;;;;40.13;25.10;;;10.40;99.90;;;;;;5006082;28;20046;-74
2023/03/21 11:36:18;;;;;;;42.97;25.35;;;10.40;99.90;;;;;;5001328;28;20033;-74
2023/03/21 11:38:52;;;;;;;41.83;24.45;;;10.50;99.90;;;;;;5007643;28;20140;-73
2023/03/21 11:41:32;;;;;;;37.03;22.48;;;10.50;99.90;;;;;;5007045;28;20426;-77
2023/03/21 11:44:00;;;;;;;38.58;23.08;;;10.60;99.90;;;;;;5010865;28;20038;-79
2023/03/21 11:46:29;;;;;;;39.08;25.15;;;10.60;99.90;;;;;;4994446;28;20034;-77
2023/03/21 11:48:56;;;;;;;36.22;23.42;;;10.60;99.90;;;;;;5012694;28;20042;-77
2023/03/21 11:51:28;;;;;;;39.63;23.17;;;10.60;99.90;;;;;;5005978;28;20086;-76
2023/03/21 11:54:06;;;;;;;35.88;23.20;;;10.60;99.90;;;;;;5002037;28;20112;-77
2023/03/21 11:56:34;;;;;;;41.10;25.17;;;10.60;99.90;;;;;;5006196;28;20029;-76
2023/03/21 11:59:12;;;;;;;38.65;23.13;;;10.50;99.90;;;;;;5006626;28;20576;-74
2023/03/21 12:02:17;;;;;;;36.65;22.63;;;10.50;99.90;;;;;;5021697;28;20113;-76
2023/03/21 12:04:57;;;;;;;37.65;23.00;;;10.60;99.90;;;;;;4997028;28;20037;-76
2023/03/21 12:07:37;;;;;;;37.07;24.87;;;10.60;99.90;;;;;;5013895;28;20034;-76
2023/03/21 12:10:24;;;;;;;31.02;20.75;;;10.80;99.90;;;;;;5005610;28;20022;-76
2023/03/21 12:13:01;;;;;;;30.35;19.30;;;11.00;99.90;;;;;;5029913;28;20041;-75
2023/03/21 12:15:36;;;;;;;28.50;18.25;;;10.90;99.90;;;;;;5010068;28;20040;-75
2023/03/21 12:18:33;;;;;;;30.60;19.00;;;11.00;99.90;;;;;;5023160;28;20371;-77
2023/03/21 12:21:22;;;;;;;28.17;18.80;;;11.00;99.90;;;;;;5012074;28;20111;-73
2023/03/21 12:24:04;;;;;;;29.55;18.10;;;11.00;99.90;;;;;;5033772;28;20505;-73
2023/03/21 12:26:37;;;;;;;26.92;17.33;;;11.00;99.90;;;;;;4991721;28;20026;-76
2023/03/21 12:29:25;;;;;;;27.25;16.52;;;11.00;99.90;;;;;;5011243;28;20030;-73
2023/03/21 12:32:26;;;;;;;24.85;16.98;;;11.00;99.90;;;;;;4994220;28;20030;-73
2023/03/21 12:35:23;;;;;;;27.15;15.52;;;11.00;99.90;;;;;;5033770;28;20035;-73
2023/03/21 12:38:02;;;;;;;21.80;15.40;;;11.00;99.90;;;;;;5007344;28;20037;-75
2023/03/21 12:41:05;;;;;;;23.08;15.27;;;10.80;99.90;;;;;;5008692;28;20030;-75
2023/03/21 12:44:08;;;;;;;22.23;14.10;;;10.70;99.90;;;;;;5010087;28;20026;-72
2023/03/21 12:46:49;;;;;;;21.65;12.80;;;10.70;99.90;;;;;;4993949;28;20041;-73
2023/03/21 12:49:15;;;;;;;18.80;12.82;;;10.70;99.90;;;;;;5008711;28;20049;-72
2023/03/21 12:51:45;;;;;;;17.45;12.85;;;10.70;99.90;;;;;;4994122;28;20026;-73
2023/03/21 12:54:25;;;;;;;19.00;13.10;;;10.60;99.90;;;;;;5008655;28;20042;-73
2023/03/21 12:57:00;;;;;;;21.98;13.45;;;10.70;99.90;;;;;;5005861;28;20109;-75